Time;durP1;ratioP1;P1;durP2;ratioP2;P2;SDS_P1;SDS_P2;PMS_P1;PMS_P2;Temp;Humidity;BMP_temperature;BMP_pressure;BME280_temperature;BME280_humidity;BME280_pressure;Samples;Min_cycle;Max_cycle;Signal;HPM_P1;HPM_P2
2022/04/18 00:01:31;;;;;;;21.33;14.82;;;;;;;;;;5051344;28;20045;-71
2022/04/18 00:03:59;;;;;;;22.65;15.32;;;;;;;;;;5051059;28;20495;-71
2022/04/18 00:06:26;;;;;;;18.25;11.98;;;;;;;;;;5049628;28;20424;-71
2022/04/18 00:08:52;;;;;;;10.15;7.63;;;;;;;;;;5050859;28;20049;-71
2022/04/18 00:11:19;;;;;;;9.75;5.00;;;;;;;;;;5051253;28;20089;-71
2022/04/18 00:13:45;;;;;;;7.18;3.55;;;;;;;;;;5051251;28;20053;-71
2022/04/18 00:16:12;;;;;;;5.03;2.50;;;;;;;;;;5051037;28;20091;-70
2022/04/18 00:18:38;;;;;;;8.02;2.65;;;;;;;;;;5050791;28;20053;-71
2022/04/18 00:21:05;;;;;;;3.92;1.60;;;;;;;;;;5051132;28;20080;-71
2022/04/18 00:23:31;;;;;;;2.17;1.02;;;;;;;;;;5049615;28;20080;-71
2022/04/18 00:25:57;;;;;;;4.03;1.58;;;;;;;;;;5050780;28;20080;-71
2022/04/18 00:28:24;;;;;;;4.45;1.27;;;;;;;;;;5054454;28;20053;-71
2022/04/18 00:30:51;;;;;;;3.65;1.40;;;;;;;;;;5054222;28;20088;-71
2022/04/18 00:33:17;;;;;;;6.47;1.52;;;;;;;;;;5054286;28;20084;-71
2022/04/18 00:35:44;;;;;;;4.13;1.23;;;;;;;;;;5054432;28;20485;-71
2022/04/18 00:38:10;;;;;;;2.22;0.50;;;;;;;;;;5054174;28;20060;-71
2022/04/18 00:40:37;;;;;;;3.72;0.90;;;;;;;;;;5054284;28;20124;-71
2022/04/18 00:43:04;;;;;;;1.95;0.50;;;;;;;;;;5054408;28;20068;-71
2022/04/18 00:45:31;;;;;;;5.43;0.90;;;;;;;;;;5054385;28;20084;-71
2022/04/18 00:47:57;;;;;;;6.20;0.73;;;;;;;;;;5054001;28;20045;-71
2022/04/18 00:50:25;;;;;;;3.35;0.70;;;;;;;;;;5053508;28;20144;-71
2022/04/18 00:52:52;;;;;;;4.30;0.43;;;;;;;;;;5054110;28;20049;-71
2022/04/18 00:55:19;;;;;;;7.60;1.27;;;;;;;;;;5054101;28;20136;-71
2022/04/18 00:57:47;;;;;;;5.07;0.65;;;;;;;;;;5053957;28;20091;-71
2022/04/18 01:00:13;;;;;;;;;;;;;;;;;;5054735;28;20104;-71
2022/04/18 01:02:40;;;;;;;3.38;0.60;;;;;;;;;;5053762;28;19960;-71
2022/04/18 01:05:06;;;;;;;4.15;0.65;;;;;;;;;;5053637;28;20045;-71
2022/04/18 01:07:33;;;;;;;2.63;0.40;;;;;;;;;;5053670;28;20084;-71
2022/04/18 01:10:00;;;;;;;3.30;0.60;;;;;;;;;;5054176;28;20083;-71
2022/04/18 01:12:27;;;;;;;4.70;0.93;;;;;;;;;;5053851;28;20118;-71
2022/04/18 01:14:53;;;;;;;2.60;0.73;;;;;;;;;;5053383;28;20571;-71
2022/04/18 01:17:20;;;;;;;7.57;0.70;;;;;;;;;;5053708;28;20119;-71
2022/04/18 01:19:46;;;;;;;5.10;0.70;;;;;;;;;;5053284;28;20067;-71
2022/04/18 01:22:13;;;;;;;7.70;1.00;;;;;;;;;;5053642;28;20107;-71
2022/04/18 01:30:11;;;;;;;4.28;0.57;;;;;;;;;;5053210;28;20084;-71
2022/04/18 01:32:38;;;;;;;4.05;0.65;;;;;;;;;;5053096;28;20573;-71
2022/04/18 01:35:04;;;;;;;4.53;0.95;;;;;;;;;;5053171;28;20493;-71
2022/04/18 01:37:31;;;;;;;5.75;0.90;;;;;;;;;;5053077;28;20102;-71
2022/04/18 01:39:57;;;;;;;3.47;1.02;;;;;;;;;;5052571;28;20132;-71
2022/04/18 01:42:24;;;;;;;6.80;0.93;;;;;;;;;;5053226;28;20077;-71
2022/04/18 01:44:51;;;;;;;4.95;0.80;;;;;;;;;;5052940;28;20080;-71
2022/04/18 01:47:18;;;;;;;;;;;;;;;;;;5052434;28;20081;-71
2022/04/18 01:49:44;;;;;;;3.75;0.77;;;;;;;;;;5052618;28;19968;-71
2022/04/18 01:52:11;;;;;;;3.38;0.73;;;;;;;;;;5052771;28;20075;-71
2022/04/18 01:54:37;;;;;;;8.48;1.00;;;;;;;;;;5052706;28;20092;-71
2022/04/18 01:57:04;;;;;;;6.38;1.17;;;;;;;;;;5053073;28;20092;-71
2022/04/18 01:59:30;;;;;;;5.55;0.80;;;;;;;;;;5052480;28;20472;-71
2022/04/18 02:01:57;;;;;;;5.47;0.90;;;;;;;;;;5052907;28;20099;-71
2022/04/18 02:04:23;;;;;;;5.40;1.20;;;;;;;;;;5048207;28;20524;-71
2022/04/18 02:06:49;;;;;;;4.65;0.60;;;;;;;;;;5049434;28;20067;-71
2022/04/18 02:09:16;;;;;;;3.45;0.70;;;;;;;;;;5052524;28;20087;-72
2022/04/18 02:11:42;;;;;;;3.53;0.88;;;;;;;;;;5052866;28;20091;-71
2022/04/18 02:14:08;;;;;;;5.80;0.90;;;;;;;;;;5052811;28;20091;-71
2022/04/18 02:16:35;;;;;;;7.88;1.35;;;;;;;;;;5052269;28;20087;-71
2022/04/18 02:19:01;;;;;;;5.35;0.70;;;;;;;;;;5052290;28;20075;-71
2022/04/18 02:21:28;;;;;;;9.77;1.02;;;;;;;;;;5052235;28;20049;-71
2022/04/18 02:23:54;;;;;;;3.60;0.80;;;;;;;;;;5052175;28;20080;-71
2022/04/18 02:26:21;;;;;;;6.85;1.17;;;;;;;;;;5052433;28;20045;-71
2022/04/18 02:28:48;;;;;;;5.65;1.63;;;;;;;;;;5052063;28;20481;-71
2022/04/18 02:31:14;;;;;;;4.80;0.97;;;;;;;;;;5052414;28;20365;-71
2022/04/18 02:33:40;;;;;;;7.03;1.30;;;;;;;;;;5052155;28;20132;-71
2022/04/18 02:36:07;;;;;;;6.85;1.17;;;;;;;;;;5052301;28;20103;-71
2022/04/18 02:38:33;;;;;;;4.53;0.80;;;;;;;;;;5051047;28;20049;-71
2022/04/18 02:41:00;;;;;;;5.90;1.33;;;;;;;;;;5050724;28;20076;-71
2022/04/18 02:43:26;;;;;;;8.40;1.15;;;;;;;;;;5052063;28;20052;-72
2022/04/18 02:45:53;;;;;;;6.88;1.15;;;;;;;;;;5052078;28;20080;-71
2022/04/18 02:48:20;;;;;;;3.78;0.95;;;;;;;;;;5051933;28;20382;-71
2022/04/18 02:50:46;;;;;;;4.95;1.40;;;;;;;;;;5051553;28;20119;-71
2022/04/18 02:53:13;;;;;;;5.55;1.00;;;;;;;;;;5050694;28;20072;-71
2022/04/18 02:55:39;;;;;;;5.80;1.65;;;;;;;;;;5051627;28;20486;-71
2022/04/18 02:58:05;;;;;;;6.35;1.63;;;;;;;;;;5051809;28;20048;-71
2022/04/18 03:00:32;;;;;;;8.32;1.73;;;;;;;;;;5051609;28;20501;-71
2022/04/18 03:02:58;;;;;;;6.05;1.13;;;;;;;;;;5051568;28;20578;-71
2022/04/18 03:05:25;;;;;;;5.60;1.00;;;;;;;;;;5051944;28;20397;-71
2022/04/18 03:07:51;;;;;;;4.82;1.08;;;;;;;;;;5051503;28;20080;-71
2022/04/18 03:11:02;;;;;;;3.53;1.13;;;;;;;;;;5051509;28;20080;-71
2022/04/18 03:13:04;;;;;;;5.78;1.05;;;;;;;;;;5051310;28;20555;-71
2022/04/18 03:15:30;;;;;;;6.97;1.17;;;;;;;;;;5051780;28;20060;-71
2022/04/18 03:17:57;;;;;;;7.72;0.95;;;;;;;;;;5051383;28;20128;-71
2022/04/18 03:20:23;;;;;;;7.68;1.75;;;;;;;;;;5051639;28;20126;-71
2022/04/18 03:22:50;;;;;;;9.40;1.33;;;;;;;;;;5051441;28;20504;-71
2022/04/18 03:25:16;;;;;;;7.38;0.98;;;;;;;;;;5051631;28;20084;-71
2022/04/18 03:27:43;;;;;;;6.22;1.10;;;;;;;;;;5051518;28;20137;-71
2022/04/18 03:30:10;;;;;;;6.13;1.10;;;;;;;;;;5051578;28;20092;-71
2022/04/18 03:32:36;;;;;;;5.35;1.55;;;;;;;;;;5051625;28;20053;-71
2022/04/18 03:35:03;;;;;;;8.30;1.58;;;;;;;;;;5051268;28;20081;-71
2022/04/18 03:40:14;;;;;;;4.82;1.08;;;;;;;;;;5051463;28;20089;-71
2022/04/18 03:42:42;;;;;;;5.70;0.93;;;;;;;;;;5050252;28;20114;-71
2022/04/18 03:45:09;;;;;;;12.50;2.13;;;;;;;;;;5049898;28;20505;-71
2022/04/18 03:47:35;;;;;;;5.63;1.52;;;;;;;;;;5049958;28;20068;-71
2022/04/18 03:50:02;;;;;;;6.65;1.90;;;;;;;;;;5051208;28;20087;-71
2022/04/18 03:52:28;;;;;;;7.55;1.42;;;;;;;;;;5050082;28;20111;-70
2022/04/18 03:54:55;;;;;;;5.45;1.80;;;;;;;;;;5051410;28;20053;-71
2022/04/18 03:57:21;;;;;;;7.40;1.65;;;;;;;;;;5051358;28;20053;-71
2022/04/18 03:59:48;;;;;;;4.97;1.80;;;;;;;;;;5051070;28;20080;-71
2022/04/18 04:02:14;;;;;;;8.18;2.40;;;;;;;;;;5038608;28;20081;-71
2022/04/18 04:04:41;;;;;;;4.72;1.58;;;;;;;;;;5054917;28;20515;-71
2022/04/18 04:07:08;;;;;;;6.32;1.50;;;;;;;;;;5055021;28;20132;-71
2022/04/18 04:09:34;;;;;;;7.13;1.40;;;;;;;;;;5055051;28;20072;-70
2022/04/18 04:12:01;;;;;;;5.65;1.30;;;;;;;;;;5054781;28;20052;-71
2022/04/18 04:14:27;;;;;;;6.00;1.17;;;;;;;;;;5054910;28;20103;-71
2022/04/18 04:16:54;;;;;;;6.53;1.38;;;;;;;;;;5054874;28;20449;-70
2022/04/18 04:19:20;;;;;;;6.88;1.85;;;;;;;;;;5054559;28;20071;-71
2022/04/18 04:21:46;;;;;;;6.18;1.30;;;;;;;;;;5054586;28;20081;-71
2022/04/18 04:24:13;;;;;;;4.82;1.40;;;;;;;;;;5054532;28;20060;-71
2022/04/18 04:26:39;;;;;;;8.07;2.08;;;;;;;;;;5054600;28;20080;-71
2022/04/18 04:29:06;;;;;;;9.77;2.45;;;;;;;;;;5054434;28;20049;-71
2022/04/18 04:31:32;;;;;;;10.05;3.28;;;;;;;;;;5054563;28;20080;-71
2022/04/18 04:33:59;;;;;;;7.53;2.53;;;;;;;;;;5054345;28;20450;-71
2022/04/18 04:36:25;;;;;;;3.80;1.85;;;;;;;;;;5054538;28;20099;-72
2022/04/18 04:38:52;;;;;;;5.43;1.98;;;;;;;;;;5054445;28;20168;-72
2022/04/18 04:41:18;;;;;;;10.30;2.50;;;;;;;;;;5054376;28;20087;-71
2022/04/18 04:43:44;;;;;;;6.85;2.05;;;;;;;;;;5054312;28;20041;-71
2022/04/18 04:46:11;;;;;;;6.13;2.00;;;;;;;;;;5054084;28;20095;-71
2022/04/18 04:48:37;;;;;;;6.57;2.20;;;;;;;;;;5054276;28;20048;-71
2022/04/18 04:51:04;;;;;;;13.85;3.13;;;;;;;;;;5052650;28;20097;-71
2022/04/18 04:53:30;;;;;;;4.60;1.60;;;;;;;;;;5054209;28;20052;-71
2022/04/18 04:55:57;;;;;;;7.47;1.90;;;;;;;;;;5054131;28;20076;-71
2022/04/18 04:58:23;;;;;;;9.00;2.92;;;;;;;;;;5053802;28;20053;-71
2022/04/18 05:00:50;;;;;;;5.15;2.33;;;;;;;;;;5053917;28;20088;-71
2022/04/18 05:03:16;;;;;;;8.20;2.60;;;;;;;;;;5054069;28;20045;-71
2022/04/18 05:05:43;;;;;;;4.80;2.05;;;;;;;;;;5053983;28;20049;-71
2022/04/18 05:08:09;;;;;;;8.95;2.72;;;;;;;;;;5054018;28;20076;-71
2022/04/18 05:10:36;;;;;;;7.18;2.20;;;;;;;;;;5053589;28;20136;-71
2022/04/18 05:13:03;;;;;;;7.82;1.95;;;;;;;;;;5052402;28;20095;-71
2022/04/18 05:15:30;;;;;;;6.05;2.03;;;;;;;;;;5053826;28;20080;-71
2022/04/18 05:17:57;;;;;;;4.28;1.83;;;;;;;;;;5053585;28;20114;-71
2022/04/18 05:20:23;;;;;;;8.48;1.92;;;;;;;;;;5053361;28;20550;-71
2022/04/18 05:22:50;;;;;;;10.13;1.67;;;;;;;;;;5053713;28;20084;-70
2022/04/18 05:25:16;;;;;;;9.43;2.00;;;;;;;;;;5053573;28;20493;-71
2022/04/18 05:27:43;;;;;;;3.88;1.65;;;;;;;;;;5053309;28;20049;-71
2022/04/18 05:30:09;;;;;;;5.90;1.60;;;;;;;;;;5053209;28;20523;-71
2022/04/18 05:32:36;;;;;;;8.18;2.05;;;;;;;;;;5053501;28;20087;-71
2022/04/18 05:35:02;;;;;;;8.95;1.45;;;;;;;;;;5052134;28;20084;-71
2022/04/18 05:37:29;;;;;;;7.13;1.98;;;;;;;;;;5053096;28;20084;-71
2022/04/18 05:39:55;;;;;;;6.35;2.42;;;;;;;;;;5053193;28;20076;-71
2022/04/18 05:42:23;;;;;;;7.47;1.70;;;;;;;;;;5052857;28;20496;-71
2022/04/18 05:44:50;;;;;;;11.20;2.42;;;;;;;;;;5052044;28;20072;-71
2022/04/18 05:47:16;;;;;;;6.05;1.45;;;;;;;;;;5052929;28;20432;-71
2022/04/18 05:49:43;;;;;;;10.27;1.70;;;;;;;;;;5052692;28;20075;-71
2022/04/18 05:52:09;;;;;;;7.88;2.03;;;;;;;;;;5052796;28;20102;-71
2022/04/18 05:54:37;;;;;;;7.18;1.98;;;;;;;;;;5053057;28;20079;-71
2022/04/18 05:57:06;;;;;;;7.90;1.77;;;;;;;;;;5052954;28;20139;-71
2022/04/18 05:59:32;;;;;;;8.05;2.08;;;;;;;;;;5053023;28;20118;-71
2022/04/18 06:01:59;;;;;;;9.90;2.00;;;;;;;;;;5051324;28;20080;-71
2022/04/18 06:04:26;;;;;;;8.63;2.13;;;;;;;;;;5052590;28;20080;-71
2022/04/18 06:06:52;;;;;;;7.53;1.60;;;;;;;;;;5052535;28;20048;-71
2022/04/18 06:09:18;;;;;;;7.70;2.25;;;;;;;;;;5052397;28;20068;-71
2022/04/18 06:11:45;;;;;;;9.02;1.85;;;;;;;;;;5052643;28;20049;-71
2022/04/18 06:14:11;;;;;;;10.27;2.72;;;;;;;;;;5051136;28;20541;-70
2022/04/18 06:16:38;;;;;;;9.63;2.20;;;;;;;;;;5052295;28;20504;-70
2022/04/18 06:19:04;;;;;;;16.88;2.85;;;;;;;;;;5052656;28;20079;-71
2022/04/18 06:21:31;;;;;;;8.45;1.90;;;;;;;;;;5052482;28;20132;-71
2022/04/18 06:23:57;;;;;;;7.65;1.85;;;;;;;;;;5051986;28;20095;-70
2022/04/18 06:26:24;;;;;;;9.38;1.60;;;;;;;;;;5050808;28;20113;-71
2022/04/18 06:28:51;;;;;;;6.75;1.83;;;;;;;;;;5052207;28;20048;-71
2022/04/18 06:31:18;;;;;;;9.27;2.78;;;;;;;;;;5052085;28;20580;-71
2022/04/18 06:33:44;;;;;;;7.38;2.22;;;;;;;;;;5052323;28;20131;-70
2022/04/18 06:36:11;;;;;;;8.55;1.80;;;;;;;;;;5050854;28;20083;-71
2022/04/18 06:38:37;;;;;;;14.48;2.13;;;;;;;;;;5051931;28;20135;-71
2022/04/18 06:41:04;;;;;;;7.20;1.75;;;;;;;;;;5051850;28;20529;-71
2022/04/18 06:43:31;;;;;;;6.50;2.00;;;;;;;;;;5051838;28;20049;-71
2022/04/18 06:45:57;;;;;;;8.73;2.35;;;;;;;;;;5052185;28;20321;-71
2022/04/18 06:48:24;;;;;;;7.20;1.90;;;;;;;;;;5052178;28;20053;-70
2022/04/18 06:50:50;;;;;;;7.63;1.80;;;;;;;;;;5051515;28;20080;-71
2022/04/18 06:53:17;;;;;;;5.38;1.73;;;;;;;;;;5052027;28;20071;-71
2022/04/18 06:58:29;;;;;;;10.23;2.13;;;;;;;;;;5052050;28;20080;-71
2022/04/18 07:00:55;;;;;;;7.10;1.70;;;;;;;;;;5051844;28;20491;-71
2022/04/18 07:03:22;;;;;;;9.75;2.17;;;;;;;;;;5051598;28;20282;-71
2022/04/18 07:05:48;;;;;;;11.82;2.10;;;;;;;;;;5051530;28;20076;-71
2022/04/18 07:08:15;;;;;;;7.13;1.90;;;;;;;;;;5051622;28;20067;-71
2022/04/18 07:10:41;;;;;;;6.60;2.05;;;;;;;;;;5051607;28;20073;-71
2022/04/18 07:13:09;;;;;;;9.82;1.65;;;;;;;;;;5051537;28;20132;-72
2022/04/18 07:15:36;;;;;;;10.88;2.20;;;;;;;;;;5051517;28;20053;-71
2022/04/18 07:18:03;;;;;;;5.40;1.83;;;;;;;;;;5051380;28;20053;-71
2022/04/18 07:20:29;;;;;;;8.20;1.55;;;;;;;;;;5051523;28;20049;-70
2022/04/18 07:22:56;;;;;;;6.88;1.70;;;;;;;;;;5051687;28;20041;-70
2022/04/18 07:25:23;;;;;;;6.70;2.17;;;;;;;;;;5051690;28;20072;-71
2022/04/18 07:27:49;;;;;;;11.27;2.05;;;;;;;;;;5051371;28;20081;-70
2022/04/18 07:30:15;;;;;;;6.97;2.00;;;;;;;;;;5051314;28;20065;-71
2022/04/18 07:32:43;;;;;;;7.78;2.40;;;;;;;;;;5051593;28;20446;-71
2022/04/18 07:35:10;;;;;;;9.35;2.05;;;;;;;;;;5051495;28;20087;-71
2022/04/18 07:37:36;;;;;;;6.93;1.98;;;;;;;;;;5054126;28;20166;-71
2022/04/18 07:40:03;;;;;;;10.02;2.20;;;;;;;;;;5055301;28;20084;-71
2022/04/18 07:42:29;;;;;;;5.65;1.63;;;;;;;;;;5055226;28;20562;-71
2022/04/18 07:44:56;;;;;;;8.65;1.65;;;;;;;;;;5055352;28;20076;-71
2022/04/18 07:47:22;;;;;;;9.02;1.70;;;;;;;;;;5054063;28;20077;-71
2022/04/18 07:49:49;;;;;;;5.85;1.63;;;;;;;;;;5055216;28;20104;-71
2022/04/18 07:52:15;;;;;;;7.68;1.77;;;;;;;;;;5053895;28;20093;-71
2022/04/18 07:54:42;;;;;;;9.18;1.92;;;;;;;;;;5055328;28;20079;-71
2022/04/18 07:57:08;;;;;;;4.05;1.40;;;;;;;;;;5055264;28;20094;-71
2022/04/18 07:59:34;;;;;;;6.97;1.80;;;;;;;;;;5054952;28;20076;-71
2022/04/18 08:02:02;;;;;;;7.22;2.08;;;;;;;;;;5054899;28;20508;-71
2022/04/18 08:04:29;;;;;;;12.57;2.03;;;;;;;;;;5054837;28;20041;-71
2022/04/18 08:06:55;;;;;;;8.32;1.80;;;;;;;;;;5054820;28;20477;-71
2022/04/18 08:09:22;;;;;;;7.30;2.05;;;;;;;;;;5053820;28;20076;-71
2022/04/18 08:11:48;;;;;;;10.95;2.55;;;;;;;;;;5055042;28;20085;-71
2022/04/18 08:14:15;;;;;;;9.30;2.93;;;;;;;;;;5053721;28;20080;-71
2022/04/18 08:16:41;;;;;;;6.88;2.97;;;;;;;;;;5054713;28;20825;-71
2022/04/18 08:19:10;;;;;;;7.32;1.92;;;;;;;;;;5054626;28;20493;-71
2022/04/18 08:21:37;;;;;;;5.68;1.80;;;;;;;;;;5054456;28;20067;-71
2022/04/18 08:24:03;;;;;;;6.82;2.05;;;;;;;;;;5054650;28;20044;-71
2022/04/18 08:26:30;;;;;;;6.55;1.90;;;;;;;;;;5054710;28;20072;-71
2022/04/18 08:28:56;;;;;;;46.53;26.50;;;;;;;;;;5054459;28;20081;-71
2022/04/18 08:31:22;;;;;;;24.95;13.45;;;;;;;;;;5054711;28;20049;-71
2022/04/18 08:33:49;;;;;;;27.80;13.63;;;;;;;;;;5054679;28;20086;-71
2022/04/18 08:36:15;;;;;;;13.52;7.25;;;;;;;;;;5053120;28;20090;-71
2022/04/18 08:38:42;;;;;;;8.82;2.50;;;;;;;;;;5054488;28;20045;-71
2022/04/18 08:41:10;;;;;;;4.93;1.92;;;;;;;;;;5054328;28;20111;-71
2022/04/18 08:43:38;;;;;;;9.45;3.88;;;;;;;;;;5053971;28;20107;-71
2022/04/18 08:46:07;;;;;;;25.17;13.35;;;;;;;;;;5054347;28;20076;-71
2022/04/18 08:54:06;;;;;;;15.35;6.65;;;;;;;;;;5054369;28;20076;-71
2022/04/18 08:56:32;;;;;;;;;;;;;;;;;;5053325;28;20079;-71
2022/04/18 08:58:59;;;;;;;9.70;3.83;;;;;;;;;;5054082;28;19925;-71
2022/04/18 09:01:25;;;;;;;16.05;7.57;;;;;;;;;;5052718;28;20123;-71
2022/04/18 09:03:52;;;;;;;14.95;7.38;;;;;;;;;;5054122;28;20044;-71
2022/04/18 09:06:22;;;;;;;9.27;3.72;;;;;;;;;;5053725;28;20517;-71
2022/04/18 09:08:55;;;;;;;16.10;9.73;;;;;;;;;;5052931;28;20049;-71
2022/04/18 09:11:25;;;;;;;16.35;7.07;;;;;;;;;;5053738;28;20068;-71
2022/04/18 09:13:57;;;;;;;13.88;5.97;;;;;;;;;;5053930;28;20093;-71
2022/04/18 09:16:27;;;;;;;4.60;1.83;;;;;;;;;;5053885;28;20106;-71
2022/04/18 09:19:09;;;;;;;8.90;2.95;;;;;;;;;;5053511;28;20492;-71
2022/04/18 09:21:40;;;;;;;14.20;6.18;;;;;;;;;;5053349;28;20080;-71
2022/04/18 09:24:07;;;;;;;8.27;3.00;;;;;;;;;;5052574;28;20079;-71
2022/04/18 09:26:33;;;;;;;10.25;4.53;;;;;;;;;;5053364;28;20131;-71
2022/04/18 09:29:06;;;;;;;6.03;1.77;;;;;;;;;;5052132;28;20521;-71
2022/04/18 09:31:42;;;;;;;3.85;1.08;;;;;;;;;;5053233;28;20504;-71
2022/04/18 09:34:08;;;;;;;6.55;2.75;;;;;;;;;;5053311;28;20072;-71
2022/04/18 09:36:35;;;;;;;7.37;1.80;;;;;;;;;;5053191;28;20604;-71
2022/04/18 09:39:02;;;;;;;6.50;2.83;;;;;;;;;;5053188;28;20321;-71
2022/04/18 09:41:32;;;;;;;5.32;1.63;;;;;;;;;;5053169;28;20077;-71
2022/04/18 09:43:59;;;;;;;7.30;2.03;;;;;;;;;;5053222;28;20094;-71
2022/04/18 09:46:26;;;;;;;5.28;1.70;;;;;;;;;;5051763;28;20513;-72
2022/04/18 09:48:52;;;;;;;6.15;2.17;;;;;;;;;;5051695;28;20127;-71
2022/04/18 09:51:23;;;;;;;6.65;1.58;;;;;;;;;;5051225;28;20536;-72
2022/04/18 09:53:50;;;;;;;3.75;1.13;;;;;;;;;;5053026;28;20053;-71
2022/04/18 09:56:19;;;;;;;7.40;3.20;;;;;;;;;;5052838;28;20076;-71
2022/04/18 09:58:45;;;;;;;11.25;4.57;;;;;;;;;;5052747;28;20091;-71
2022/04/18 10:01:33;;;;;;;10.93;4.57;;;;;;;;;;5052624;28;20527;-71
2022/04/18 10:04:01;;;;;;;5.65;2.58;;;;;;;;;;5052842;28;20079;-71
2022/04/18 10:06:27;;;;;;;6.75;1.65;;;;;;;;;;5052705;28;20079;-71
2022/04/18 10:08:54;;;;;;;4.00;1.27;;;;;;;;;;5052502;28;20045;-71
2022/04/18 10:11:22;;;;;;;7.53;2.83;;;;;;;;;;5052409;28;20321;-71
2022/04/18 10:13:49;;;;;;;6.10;1.55;;;;;;;;;;5051459;28;20290;-71
2022/04/18 10:16:15;;;;;;;5.53;1.23;;;;;;;;;;5052394;28;20092;-72
2022/04/18 10:18:54;;;;;;;5.60;2.55;;;;;;;;;;5052607;28;20053;-71
2022/04/18 10:21:29;;;;;;;4.03;1.50;;;;;;;;;;5052240;28;20559;-72
2022/04/18 10:24:01;;;;;;;6.70;1.88;;;;;;;;;;5052522;28;20206;-71
2022/04/18 10:26:36;;;;;;;4.68;1.20;;;;;;;;;;5052243;28;20051;-72
2022/04/18 10:29:09;;;;;;;3.42;1.33;;;;;;;;;;5052133;28;20088;-72
2022/04/18 10:31:39;;;;;;;3.78;1.20;;;;;;;;;;5051623;28;20045;-72
2022/04/18 10:34:06;;;;;;;6.75;1.40;;;;;;;;;;5052106;28;20048;-72
2022/04/18 10:36:33;;;;;;;;;;;;;;;;;;5052503;28;20094;-72
2022/04/18 10:39:04;;;;;;;3.85;1.42;;;;;;;;;;5052297;28;19964;-71
2022/04/18 10:41:34;;;;;;;3.55;1.30;;;;;;;;;;5052304;28;20049;-71
2022/04/18 10:44:08;;;;;;;4.70;1.50;;;;;;;;;;5052016;28;20435;-72
2022/04/18 10:46:36;;;;;;;5.50;1.42;;;;;;;;;;5050991;28;20060;-71
2022/04/18 10:49:04;;;;;;;5.45;1.20;;;;;;;;;;5052128;28;20465;-71
2022/04/18 10:51:30;;;;;;;3.05;1.00;;;;;;;;;;5051718;28;20088;-71
2022/04/18 10:54:06;;;;;;;2.83;1.33;;;;;;;;;;5051992;28;20049;-71
2022/04/18 10:56:46;;;;;;;2.70;0.97;;;;;;;;;;5052077;28;20355;-71
2022/04/18 10:59:13;;;;;;;2.60;0.90;;;;;;;;;;5051939;28;20041;-71
2022/04/18 11:01:39;;;;;;;;;;;;;;;;;;5052083;28;20096;-71
2022/04/18 11:04:09;;;;;;;3.75;1.20;;;;;;;;;;5051908;28;19972;-71
2022/04/18 11:06:40;;;;;;;2.58;1.08;;;;;;;;;;5051988;28;20044;-71
2022/04/18 11:09:07;;;;;;;3.15;1.25;;;;;;;;;;5051864;28;20045;-71
2022/04/18 11:11:42;;;;;;;3.88;1.17;;;;;;;;;;5051531;28;20048;-72
2022/04/18 11:14:16;;;;;;;4.45;1.27;;;;;;;;;;5050414;28;20049;-72
2022/04/18 11:16:42;;;;;;;4.40;1.15;;;;;;;;;;5051583;28;20073;-72
2022/04/18 11:19:15;;;;;;;4.75;1.20;;;;;;;;;;5051821;28;20123;-71
2022/04/18 11:21:55;;;;;;;5.25;1.45;;;;;;;;;;5051411;28;20048;-72
2022/04/18 11:24:35;;;;;;;5.55;2.25;;;;;;;;;;5051360;28;20057;-71
2022/04/18 11:27:02;;;;;;;3.53;1.27;;;;;;;;;;5050381;28;20045;-72
2022/04/18 11:29:30;;;;;;;6.07;1.25;;;;;;;;;;5051412;28;20081;-72
2022/04/18 11:31:57;;;;;;;3.88;1.17;;;;;;;;;;5051605;28;20087;-72
2022/04/18 11:34:24;;;;;;;;;;;;;;;;;;5052053;28;20088;-72
2022/04/18 11:36:50;;;;;;;2.05;0.88;;;;;;;;;;5050364;28;19987;-72
2022/04/18 11:39:17;;;;;;;3.30;0.80;;;;;;;;;;5051348;28;20619;-72
2022/04/18 11:41:43;;;;;;;3.92;1.25;;;;;;;;;;5051556;28;20084;-72
2022/04/18 11:44:10;;;;;;;;;;;;;;;;;;5051554;28;20457;-72
2022/04/18 11:46:36;;;;;;;4.47;1.13;;;;;;;;;;5051295;28;20388;-72
2022/04/18 11:49:03;;;;;;;3.88;1.23;;;;;;;;;;5051150;28;20125;-72
2022/04/18 11:51:42;;;;;;;6.53;1.75;;;;;;;;;;5051192;28;20096;-71
2022/04/18 11:54:08;;;;;;;3.55;1.25;;;;;;;;;;5051163;28;20111;-72
2022/04/18 11:56:35;;;;;;;4.20;0.93;;;;;;;;;;5051139;28;20057;-72
2022/04/18 11:59:04;;;;;;;5.43;1.02;;;;;;;;;;5051142;28;20081;-72
2022/04/18 12:07:01;;;;;;;2.40;0.85;;;;;;;;;;5051042;28;20041;-72
2022/04/18 12:09:30;;;;;;;3.13;0.70;;;;;;;;;;5050978;28;20071;-72
2022/04/18 12:11:58;;;;;;;3.22;1.73;;;;;;;;;;5050889;28;20531;-72
2022/04/18 12:14:30;;;;;;;5.93;4.20;;;;;;;;;;5051034;28;20099;-72
2022/04/18 12:16:59;;;;;;;2.47;1.08;;;;;;;;;;5033466;28;20091;-72
2022/04/18 12:19:27;;;;;;;2.42;1.52;;;;;;;;;;5051143;28;20087;-72
2022/04/18 12:21:55;;;;;;;4.65;1.25;;;;;;;;;;5050774;28;20527;-72
2022/04/18 12:24:21;;;;;;;4.03;1.27;;;;;;;;;;5054392;28;20076;-71
2022/04/18 12:26:54;;;;;;;3.30;1.33;;;;;;;;;;5054673;28;20073;-71
2022/04/18 12:29:21;;;;;;;2.92;0.90;;;;;;;;;;5053551;28;20079;-72
2022/04/18 12:31:47;;;;;;;;;;;;;;;;;;5054902;28;20045;-71
2022/04/18 12:34:17;;;;;;;2.72;1.17;;;;;;;;;;5054487;28;19920;-71
2022/04/18 12:36:44;;;;;;;3.88;2.03;;;;;;;;;;5053278;28;20094;-72
2022/04/18 12:39:20;;;;;;;5.53;2.63;;;;;;;;;;5054576;28;20049;-71
2022/04/18 12:41:47;;;;;;;2.77;1.00;;;;;;;;;;5054214;28;20084;-71
2022/04/18 12:44:14;;;;;;;3.37;2.00;;;;;;;;;;5054516;28;20293;-71
2022/04/18 12:46:41;;;;;;;4.90;2.45;;;;;;;;;;5054211;28;20555;-71
2022/04/18 12:49:11;;;;;;;7.13;3.58;;;;;;;;;;5054070;28;20069;-71
2022/04/18 12:51:39;;;;;;;6.75;1.52;;;;;;;;;;5053959;28;20103;-71
2022/04/18 12:54:17;;;;;;;3.58;1.20;;;;;;;;;;5054154;28;20122;-71
2022/04/18 12:56:45;;;;;;;3.90;1.08;;;;;;;;;;5054165;28;20084;-71
2022/04/18 12:59:14;;;;;;;3.67;1.02;;;;;;;;;;5054439;28;20136;-71
2022/04/18 13:01:40;;;;;;;2.85;1.33;;;;;;;;;;5053862;28;20091;-71
2022/04/18 13:04:19;;;;;;;6.03;1.38;;;;;;;;;;5053670;28;20049;-71
2022/04/18 13:06:54;;;;;;;2.92;1.13;;;;;;;;;;5054019;28;20080;-71
2022/04/18 13:09:20;;;;;;;6.20;1.88;;;;;;;;;;5054013;28;20045;-70
2022/04/18 13:11:47;;;;;;;4.50;1.30;;;;;;;;;;5052763;28;20045;-71
2022/04/18 13:14:13;;;;;;;3.90;1.40;;;;;;;;;;5053810;28;20045;-70
2022/04/18 13:16:42;;;;;;;2.80;1.00;;;;;;;;;;5053826;28;20072;-71
2022/04/18 13:19:09;;;;;;;5.45;1.40;;;;;;;;;;5052258;28;20102;-70
2022/04/18 13:21:36;;;;;;;2.30;1.10;;;;;;;;;;5053714;28;20088;-70
2022/04/18 13:24:04;;;;;;;5.32;1.40;;;;;;;;;;5053434;28;20087;-70
2022/04/18 13:26:31;;;;;;;4.70;1.30;;;;;;;;;;5053651;28;20049;-71
2022/04/18 13:28:58;;;;;;;5.35;1.98;;;;;;;;;;5053642;28;20091;-70
2022/04/18 13:31:25;;;;;;;3.97;1.58;;;;;;;;;;5053550;28;20080;-71
2022/04/18 13:33:52;;;;;;;5.25;2.40;;;;;;;;;;5052803;28;20052;-71
2022/04/18 13:36:30;;;;;;;3.97;1.83;;;;;;;;;;5053218;28;20136;-71
2022/04/18 13:38:57;;;;;;;4.72;1.40;;;;;;;;;;5053167;28;20087;-71
2022/04/18 13:41:23;;;;;;;2.80;1.33;;;;;;;;;;5053102;28;20091;-70
2022/04/18 13:43:50;;;;;;;2.13;0.98;;;;;;;;;;5052866;28;20504;-70
2022/04/18 13:46:18;;;;;;;3.17;1.48;;;;;;;;;;5053077;28;20611;-70
2022/04/18 13:48:48;;;;;;;4.03;2.05;;;;;;;;;;5053211;28;20123;-70
2022/04/18 13:51:15;;;;;;;6.00;1.67;;;;;;;;;;5053026;28;20096;-70
2022/04/18 13:53:42;;;;;;;6.35;1.80;;;;;;;;;;5053034;28;20095;-70
2022/04/18 13:56:09;;;;;;;7.55;2.30;;;;;;;;;;5052766;28;20087;-70
2022/04/18 13:58:35;;;;;;;6.00;3.00;;;;;;;;;;5052777;28;20086;-70
2022/04/18 14:01:02;;;;;;;6.93;2.40;;;;;;;;;;5052872;28;20328;-70
2022/04/18 14:03:28;;;;;;;9.00;3.08;;;;;;;;;;5052681;28;20052;-70
2022/04/18 14:05:57;;;;;;;4.07;1.98;;;;;;;;;;5052635;28;20080;-70
2022/04/18 14:08:23;;;;;;;8.25;2.67;;;;;;;;;;5051289;28;20094;-70
2022/04/18 14:10:50;;;;;;;7.87;2.90;;;;;;;;;;5052802;28;20479;-70
2022/04/18 14:13:16;;;;;;;9.57;3.45;;;;;;;;;;5052721;28;20314;-70
2022/04/18 14:21:13;;;;;;;9.75;4.43;;;;;;;;;;5052700;28;20458;-71
2022/04/18 14:23:41;;;;;;;9.88;4.07;;;;;;;;;;5052191;28;20045;-70
2022/04/18 14:26:07;;;;;;;;;;;;;;;;;;5053048;28;20048;-70
2022/04/18 14:28:33;;;;;;;7.83;2.83;;;;;;;;;;5052353;28;19921;-70
2022/04/18 14:31:00;;;;;;;5.75;2.83;;;;;;;;;;5052487;28;20412;-70
2022/04/18 14:33:26;;;;;;;6.80;2.83;;;;;;;;;;5052152;28;20052;-71
2022/04/18 14:35:53;;;;;;;9.20;3.33;;;;;;;;;;5052116;28;20084;-71
2022/04/18 14:38:19;;;;;;;10.57;2.30;;;;;;;;;;5052384;28;20154;-70
2022/04/18 14:40:46;;;;;;;8.48;4.65;;;;;;;;;;5052344;28;20049;-71
2022/04/18 14:43:16;;;;;;;8.23;3.00;;;;;;;;;;5052263;28;20081;-70
2022/04/18 14:45:43;;;;;;;5.97;2.03;;;;;;;;;;5051588;28;20071;-71
2022/04/18 14:48:09;;;;;;;5.97;2.40;;;;;;;;;;5051873;28;20056;-71
2022/04/18 14:50:36;;;;;;;4.35;2.20;;;;;;;;;;5051674;28;20500;-71
2022/04/18 14:53:07;;;;;;;4.00;1.73;;;;;;;;;;5052074;28;20080;-71
2022/04/18 14:55:33;;;;;;;6.72;2.78;;;;;;;;;;5052063;28;20456;-71
2022/04/18 14:57:59;;;;;;;6.07;2.70;;;;;;;;;;5050845;28;20088;-71
2022/04/18 15:00:26;;;;;;;3.73;1.40;;;;;;;;;;5052226;28;20278;-71
2022/04/18 15:02:52;;;;;;;3.57;1.53;;;;;;;;;;5052048;28;20309;-71
2022/04/18 15:05:19;;;;;;;5.25;1.75;;;;;;;;;;5051646;28;20196;-71
2022/04/18 15:07:45;;;;;;;2.25;1.20;;;;;;;;;;5051810;28;20077;-71
2022/04/18 15:10:13;;;;;;;5.85;2.60;;;;;;;;;;5051575;28;20091;-71
2022/04/18 15:12:39;;;;;;;10.02;6.13;;;;;;;;;;5051461;28;20528;-71